METAR AND TAF INFORMATION
METAR FOR PAFE
ADDS - METARS form results

(1325 UTC 11 July 2020)
Data provider http://aviationweather.gov/metar/data/
 
METAR text: PAFE 111256Z AUTO 09006KT 10SM OVC026 12/11 A2983 RMK AO2 SLP113 T01220106 $
Conditions at: PAFE (KAKE , AK, US) observed 1256 UTC 11 July 2020
Temperature: 12.2°C (54°F)
Dewpoint: 10.6°C (51°F) [RH = 90%]
Pressure (altimeter): 29.83 inches Hg (1010.2 mb)
[Sea-level pressure: 1011.3 mb]
Winds: from the E (90 degrees) at 7 MPH (6 knots; 3.1 m/s)
Visibility: 10 or more miles (16+ km)
Ceiling: 2600 feet AGL
Clouds: overcast cloud deck at 2600 feet AGL
Weather:
SOME DATA ABOVE MAY BE INACCURATE!!!
"$" is an indication the sensor requires maintenance

 AIRPORT MAP

 RUNWAY INFORMATION
Runway 11 Runway length 4000 ft Runway width 100 ft
Runway elevation 150 ft Runway displaced threshold 0 ft Runway heading 130
Runway 29 Runway length 4000 ft Runway width 100 ft
Runway elevation 172 ft Runway displaced threshold 0 ft Runway heading 310

 AIRPORT FREQUENCIES
Type AWOS Name AWOS 3 Frequency 135.25 MHZ
Type CNTR Name ANCHORAGE Frequency 118 MHZ
Type CTAF Name CTAF Frequency 122.9 MHZ
Type FSS Name SITKA RDO Frequency 121.3 MHZ

 AIRPORT NEAR NAVIGATION AIDS
Type NDB-DME Name Kake Frequency 223 KHZ